首页
METAR-TAF:

METAR-TAF

机场 :

内塔吉·苏巴斯·钱德拉·鲍斯国际机场

加尔各答, 印度

纬度: 22-39N, 经度: 088-27E, 海拔: 4米

当前天气观测

该预报发布于29分钟前的04:00 UTC
风速6节,风向东转东北
温度 26°C
湿度 58%
气压 1016 hPa
能見度: 3200

METAR: VECC 180400Z 06006KT 3200 HZ NSC 26/17 Q1016 NOSIG

时间: 09:59 (04:29 UTC)

预报

该预报发布于2小时和29分钟前的02:00 UTC
预报有效从18日的 03点(UTC)到 18日的 12点(UTC)
风速5节,风向东北
能見度: 2500
成为
从 18日的 05点(UTC)到 18日的 07点(UTC)
能見度: 3500
成为
从 18日的 10点(UTC)到 18日的 12点(UTC)
风速节,风向
能見度: 2800

TAF: VECC 180200Z 1803/1812 04005KT 2500 HZ NSC BECMG 1805/1807 3500 HZ BECMG 1810/1812 00000KT 2800 HZ

超过4000个机场的气象观测和天气预报(METAR&TAF报告)。

可查询的气象台以黄色和红色小点在地图上表示。

将鼠标移到小点上方,可查看气象台名称。

然后点击查看天气观测和预报。

如需切换地图:点击带黑十字的绿色按钮放大地图;点击带横线的绿色按钮缩小地图;或者点击绿色箭头查看邻近地区的地图。


METAR-TAF: